Relax — ILWX2 — position and weather

sailwx.info

Track history (hours):
 
Tides and Currents Weather Stations Pressure Air Temp Water Temp Dewpoint Dewpoint Depression Visibility Wind Speed Wind Dir Waves Ship Positions

Relax

Last reported at 2017-Jul-29 08:09 UTC. Time now 2017-Jul-29 11:55 UTC.
Position N 40°38' E 014°12'.

MMSI: 247277800.

Date/timePositionNaut miles runAvg speedWind from/ knotsBaromVisibWave heightAir tempDewpointWater temp
2017-Jul-29 08:09N 40°38' E 014°12'0 0.0
2017-Jul-28 08:09N 40°38' E 014°12'14 0.7
2017-Jul-27 11:16N 40°45' E 013°56'0 0.0
2017-Jul-27 10:58N 40°45' E 013°56'0 0.0
2017-Jul-27 10:28N 40°45' E 013°56'0 0.0
2017-Jul-27 09:58N 40°45' E 013°56'0 0.0
2017-Jul-27 09:28N 40°45' E 013°56'13 9.8
2017-Jul-27 08:11N 40°38' E 014°09'12 0.8
2017-Jul-26 16:09N 40°36' E 014°26'1 0.1
2017-Jul-26 07:18N 40°36' E 014°24'1 0.0
2017-Jul-24 16:15N 40°35' E 014°25'19 2.5
2017-Jul-24 08:46N 40°42' E 014°02'519.7
2017-Jul-24 08:30N 40°39' E 014°08'1310.2
2017-Jul-24 07:14N 40°35' E 014°24'5 0.4
2017-Jul-23 16:48N 40°37' E 014°30'1 3.6
2017-Jul-23 16:28N 40°37' E 014°29'817.9
2017-Jul-23 16:00N 40°34' E 014°19'3 5.5
2017-Jul-23 15:28N 40°34' E 014°15'714.8
2017-Jul-23 15:00N 40°39' E 014°09'12 3.5
2017-Jul-23 11:37N 40°45' E 013°56'0 0.1
2017-Jul-23 11:25N 40°45' E 013°56'12 3.8
2017-Jul-23 08:18N 40°39' E 014°09'619.2
2017-Jul-23 07:59N 40°35' E 014°15'12 0.8
2017-Jul-22 16:39N 40°36' E 014°31'5 8.9
2017-Jul-22 16:08N 40°35' E 014°25'218.4
2017-Jul-22 16:00N 40°34' E 014°22'6 8.5
2017-Jul-22 15:15N 40°36' E 014°14'520.5
2017-Jul-22 15:01N 40°39' E 014°09'12 9.6
2017-Jul-22 13:47N 40°45' E 013°56'0 0.0
2017-Jul-22 13:20N 40°45' E 013°56'0 0.0
2017-Jul-22 12:53N 40°45' E 013°56'0 0.0
2017-Jul-22 12:20N 40°45' E 013°56'0 0.0
2017-Jul-22 11:53N 40°45' E 013°56'0 0.0
2017-Jul-22 10:08N 40°45' E 013°56'0 0.0
2017-Jul-22 09:53N 40°45' E 013°56'0 0.0
2017-Jul-22 09:29N 40°45' E 013°56'4 6.6
2017-Jul-22 08:53N 40°44' E 014°01'720.0
2017-Jul-22 08:30N 40°39' E 014°09'8 8.7
2017-Jul-22 07:36N 40°34' E 014°16'10 0.7
2017-Jul-21 16:32N 40°37' E 014°29'0 1.1
2017-Jul-21 16:25N 40°38' E 014°29'614.8
2017-Jul-21 16:00N 40°34' E 014°22'6 7.3
2017-Jul-21 15:15N 40°36' E 014°15'519.8
2017-Jul-21 15:00N 40°39' E 014°10'1019.8
2017-Jul-21 14:30N 40°44' E 013°59'2 4.1
2017-Jul-21 13:58N 40°45' E 013°56'1 1.3
2017-Jul-21 13:28N 40°45' E 013°56'0 0.0
2017-Jul-21 12:46N 40°45' E 013°56'0 0.0
2017-Jul-21 12:28N 40°45' E 013°56'0 0.0
2017-Jul-21 11:58N 40°45' E 013°56'0 0.0
2017-Jul-21 11:19N 40°45' E 013°56'0 0.0
2017-Jul-21 10:46N 40°45' E 013°56'0 0.0
2017-Jul-21 10:19N 40°45' E 013°56'0 0.0
2017-Jul-21 09:52N 40°45' E 013°56'0 0.0
2017-Jul-21 09:24N 40°45' E 013°56'1 1.5
2017-Jul-21 08:58N 40°45' E 013°57'715.6
2017-Jul-21 08:30N 40°41' E 014°04'1117.7
2017-Jul-21 07:54N 40°34' E 014°15'410.2
2017-Jul-21 07:29N 40°34' E 014°20'5 0.3
2017-Jul-20 15:15N 40°36' E 014°15'520.2
2017-Jul-20 15:00N 40°39' E 014°09'1 0.2
2017-Jul-20 08:18N 40°40' E 014°08'620.1
2017-Jul-20 08:00N 40°36' E 014°15'0 0.0
2017-Jul-19 15:21N 40°36' E 014°15'6 0.8
2017-Jul-19 08:17N 40°39' E 014°09'  
Track history (hours):
 
Tides and Currents Weather Stations Pressure Air Temp Water Temp Dewpoint Dewpoint Depression Visibility Wind Speed Wind Dir Waves Ship Positions

Relax

Last reported at 2017-Jul-29 08:09 UTC. Time now 2017-Jul-29 11:55 UTC.
Position N 40°38' E 014°12'.

MMSI: 247277800.

Date/timePositionNaut miles runAvg speedWind from/ knotsBaromVisibWave heightAir tempDewpointWater temp
2017-Jul-29 08:09N 40°38' E 014°12'0 0.0
2017-Jul-28 08:09N 40°38' E 014°12'14 0.7
2017-Jul-27 11:16N 40°45' E 013°56'0 0.0
2017-Jul-27 10:58N 40°45' E 013°56'0 0.0
2017-Jul-27 10:28N 40°45' E 013°56'0 0.0
2017-Jul-27 09:58N 40°45' E 013°56'0 0.0
2017-Jul-27 09:28N 40°45' E 013°56'13 9.8
2017-Jul-27 08:11N 40°38' E 014°09'12 0.8
2017-Jul-26 16:09N 40°36' E 014°26'1 0.1
2017-Jul-26 07:18N 40°36' E 014°24'1 0.0
2017-Jul-24 16:15N 40°35' E 014°25'19 2.5
2017-Jul-24 08:46N 40°42' E 014°02'519.7
2017-Jul-24 08:30N 40°39' E 014°08'1310.2
2017-Jul-24 07:14N 40°35' E 014°24'5 0.4
2017-Jul-23 16:48N 40°37' E 014°30'1 3.6
2017-Jul-23 16:28N 40°37' E 014°29'817.9
2017-Jul-23 16:00N 40°34' E 014°19'3 5.5
2017-Jul-23 15:28N 40°34' E 014°15'714.8
2017-Jul-23 15:00N 40°39' E 014°09'12 3.5
2017-Jul-23 11:37N 40°45' E 013°56'0 0.1
2017-Jul-23 11:25N 40°45' E 013°56'12 3.8
2017-Jul-23 08:18N 40°39' E 014°09'619.2
2017-Jul-23 07:59N 40°35' E 014°15'12 0.8
2017-Jul-22 16:39N 40°36' E 014°31'5 8.9
2017-Jul-22 16:08N 40°35' E 014°25'218.4
2017-Jul-22 16:00N 40°34' E 014°22'6 8.5
2017-Jul-22 15:15N 40°36' E 014°14'520.5
2017-Jul-22 15:01N 40°39' E 014°09'12 9.6
2017-Jul-22 13:47N 40°45' E 013°56'0 0.0
2017-Jul-22 13:20N 40°45' E 013°56'0 0.0
2017-Jul-22 12:53N 40°45' E 013°56'0 0.0
2017-Jul-22 12:20N 40°45' E 013°56'0 0.0
2017-Jul-22 11:53N 40°45' E 013°56'0 0.0
2017-Jul-22 10:08N 40°45' E 013°56'0 0.0
2017-Jul-22 09:53N 40°45' E 013°56'0 0.0
2017-Jul-22 09:29N 40°45' E 013°56'4 6.6
2017-Jul-22 08:53N 40°44' E 014°01'720.0
2017-Jul-22 08:30N 40°39' E 014°09'8 8.7
2017-Jul-22 07:36N 40°34' E 014°16'10 0.7
2017-Jul-21 16:32N 40°37' E 014°29'0 1.1
2017-Jul-21 16:25N 40°38' E 014°29'614.8
2017-Jul-21 16:00N 40°34' E 014°22'6 7.3
2017-Jul-21 15:15N 40°36' E 014°15'519.8
2017-Jul-21 15:00N 40°39' E 014°10'1019.8
2017-Jul-21 14:30N 40°44' E 013°59'2 4.1
2017-Jul-21 13:58N 40°45' E 013°56'1 1.3
2017-Jul-21 13:28N 40°45' E 013°56'0 0.0
2017-Jul-21 12:46N 40°45' E 013°56'0 0.0
2017-Jul-21 12:28N 40°45' E 013°56'0 0.0
2017-Jul-21 11:58N 40°45' E 013°56'0 0.0
2017-Jul-21 11:19N 40°45' E 013°56'0 0.0
2017-Jul-21 10:46N 40°45' E 013°56'0 0.0
2017-Jul-21 10:19N 40°45' E 013°56'0 0.0
2017-Jul-21 09:52N 40°45' E 013°56'0 0.0
2017-Jul-21 09:24N 40°45' E 013°56'1 1.5
2017-Jul-21 08:58N 40°45' E 013°57'715.6
2017-Jul-21 08:30N 40°41' E 014°04'1117.7
2017-Jul-21 07:54N 40°34' E 014°15'410.2
2017-Jul-21 07:29N 40°34' E 014°20'5 0.3
2017-Jul-20 15:15N 40°36' E 014°15'520.2
2017-Jul-20 15:00N 40°39' E 014°09'1 0.2
2017-Jul-20 08:18N 40°40' E 014°08'620.1
2017-Jul-20 08:00N 40°36' E 014°15'0 0.0
2017-Jul-19 15:21N 40°36' E 014°15'6 0.8
2017-Jul-19 08:17N 40°39' E 014°09'  

Dump ship's entire track history